Time;durP1;ratioP1;P1;durP2;ratioP2;P2;SDS_P1;SDS_P2;PMS_P1;PMS_P2;Temp;Humidity;BMP_temperature;BMP_pressure;BME280_temperature;BME280_humidity;BME280_pressure;Samples;Min_cycle;Max_cycle;Signal;HPM_P1;HPM_P2
2022/03/02 00:02:15;;;;;;;13.95;6.50;;;-5.20;99.90;;;;;;5058524;28;20131;-82
2022/03/02 00:04:43;;;;;;;11.35;6.68;;;-5.30;99.90;;;;;;5058733;28;20059;-81
2022/03/02 00:07:09;;;;;;;13.00;6.93;;;-5.20;99.90;;;;;;5058327;28;20144;-82
2022/03/02 00:09:37;;;;;;;10.52;7.20;;;-5.20;99.90;;;;;;5058627;28;20572;-81
2022/03/02 00:12:04;;;;;;;10.40;6.50;;;-5.20;99.90;;;;;;5076162;28;20501;-81
2022/03/02 00:14:31;;;;;;;10.88;7.18;;;-5.30;99.90;;;;;;5058257;28;20091;-81
2022/03/02 00:16:58;;;;;;;11.52;6.93;;;-5.30;99.90;;;;;;5058212;28;20080;-81
2022/03/02 00:19:25;;;;;;;12.68;7.43;;;-5.20;99.90;;;;;;5076269;28;20104;-81
2022/03/02 00:21:52;;;;;;;10.70;6.85;;;-5.20;99.90;;;;;;5076090;28;20080;-81
2022/03/02 00:24:20;;;;;;;14.52;7.07;;;-5.30;99.90;;;;;;5058578;28;20055;-81
2022/03/02 00:26:47;;;;;;;11.60;7.10;;;-5.30;99.90;;;;;;5058576;28;20139;-81
2022/03/02 00:29:14;;;;;;;13.95;7.03;;;-5.20;99.90;;;;;;5058931;28;20048;-81
2022/03/02 00:31:41;;;;;;;14.40;6.75;;;-5.20;99.90;;;;;;5058652;28;20072;-82
2022/03/02 00:34:07;;;;;;;10.88;6.70;;;-5.30;99.90;;;;;;5058367;28;20088;-82
2022/03/02 00:36:35;;;;;;;11.95;7.22;;;-5.20;99.90;;;;;;5058908;28;20072;-82
2022/03/02 00:39:02;;;;;;;10.90;7.47;;;-5.10;99.90;;;;;;5059144;28;20048;-82
2022/03/02 00:41:29;;;;;;;12.63;7.75;;;-5.10;99.90;;;;;;5058751;28;20080;-82
2022/03/02 00:43:56;;;;;;;11.73;7.20;;;-4.90;99.90;;;;;;5059208;28;20080;-81
2022/03/02 00:46:29;;;;;;;10.93;7.57;;;-4.90;99.90;;;;;;5059336;28;20080;-82
2022/03/02 00:48:57;;;;;;;10.38;7.70;;;-4.80;99.90;;;;;;5076851;28;20135;-82
2022/03/02 00:51:25;;;;;;;10.68;7.20;;;-4.90;99.90;;;;;;5074994;28;20477;-81
2022/03/02 00:53:55;;;;;;;11.15;7.35;;;-4.90;99.90;;;;;;5074936;28;20140;-81
2022/03/02 00:56:22;;;;;;;8.68;6.70;;;-4.90;99.90;;;;;;5057172;28;20044;-81
2022/03/02 00:58:49;;;;;;;13.55;7.57;;;-4.90;99.90;;;;;;5057509;28;20470;-81
2022/03/02 01:01:16;;;;;;;11.85;7.05;;;-4.80;99.90;;;;;;5074778;28;20128;-81
2022/03/02 01:03:43;;;;;;;15.43;7.30;;;-4.90;99.90;;;;;;5057485;28;20055;-81
2022/03/02 01:06:10;;;;;;;12.93;7.57;;;-4.90;99.90;;;;;;5057212;28;20495;-81
2022/03/02 01:08:37;;;;;;;12.90;7.30;;;-4.90;99.90;;;;;;5057161;28;20051;-81
2022/03/02 01:11:04;;;;;;;12.80;7.20;;;-4.90;99.90;;;;;;5057167;28;20087;-82
2022/03/02 01:13:31;;;;;;;11.20;7.20;;;-5.00;99.90;;;;;;5057012;28;20463;-81
2022/03/02 01:15:57;;;;;;;12.75;7.38;;;-4.90;99.90;;;;;;5056648;28;20048;-81
2022/03/02 01:18:25;;;;;;;10.32;6.40;;;-4.90;99.90;;;;;;5057144;28;20048;-82
2022/03/02 01:20:52;;;;;;;14.93;6.93;;;-4.90;99.90;;;;;;5057076;28;20094;-82
2022/03/02 01:23:18;;;;;;;13.50;7.68;;;-5.00;99.90;;;;;;5057016;28;20124;-81
2022/03/02 01:25:45;;;;;;;15.63;7.40;;;-4.90;99.90;;;;;;5057166;28;20071;-81
2022/03/02 01:28:12;;;;;;;11.70;7.47;;;-4.80;99.90;;;;;;5056687;28;20055;-81
2022/03/02 01:30:39;;;;;;;9.48;6.65;;;-4.80;99.90;;;;;;5056864;28;20139;-81
2022/03/02 01:33:06;;;;;;;14.43;7.35;;;-4.80;99.90;;;;;;5056977;28;20052;-82
2022/03/02 01:35:33;;;;;;;14.25;7.25;;;-4.70;99.90;;;;;;5057536;28;20114;-82
2022/03/02 01:38:00;;;;;;;11.82;7.03;;;-4.60;99.90;;;;;;5057436;28;20102;-82
2022/03/02 01:40:26;;;;;;;10.68;6.95;;;-4.60;99.90;;;;;;5057102;28;20151;-82
2022/03/02 01:42:53;;;;;;;10.27;7.43;;;-4.50;99.90;;;;;;5057147;28;20487;-82
2022/03/02 01:45:21;;;;;;;8.63;6.57;;;-4.60;99.90;;;;;;5057253;28;20049;-83
2022/03/02 01:47:47;;;;;;;12.80;6.97;;;-4.60;99.90;;;;;;5057069;28;20099;-82
2022/03/02 01:50:15;;;;;;;10.88;7.10;;;-4.70;99.90;;;;;;5075019;28;20087;-82
2022/03/02 01:52:42;;;;;;;12.60;7.82;;;-4.70;99.90;;;;;;5057129;28;20147;-82
2022/03/02 01:55:10;;;;;;;9.75;7.07;;;-4.70;99.90;;;;;;5056945;28;20119;-82
2022/03/02 01:57:37;;;;;;;11.48;7.05;;;-4.70;99.90;;;;;;5057175;28;20074;-83
2022/03/02 02:00:07;;;;;;;11.13;6.82;;;-4.90;99.90;;;;;;5057195;28;20108;-82
2022/03/02 02:02:34;;;;;;;14.15;6.95;;;-4.90;99.90;;;;;;5074781;28;20155;-82
2022/03/02 02:05:01;;;;;;;11.00;6.63;;;-5.00;99.90;;;;;;5057343;28;20053;-82
2022/03/02 02:07:27;;;;;;;13.60;7.32;;;-4.90;99.90;;;;;;5074182;28;20080;-82
2022/03/02 02:09:57;;;;;;;10.15;6.60;;;-4.90;99.90;;;;;;5055821;28;20091;-82
2022/03/02 02:12:24;;;;;;;10.70;6.80;;;-4.90;99.90;;;;;;5074084;28;20131;-82
2022/03/02 02:14:51;;;;;;;11.55;6.97;;;-4.90;99.90;;;;;;5055957;28;20536;-81
2022/03/02 02:17:18;;;;;;;11.60;7.38;;;-5.00;99.90;;;;;;5056282;28;20040;-81
2022/03/02 02:19:45;;;;;;;11.57;6.72;;;-5.00;99.90;;;;;;5056433;28;20076;-82
2022/03/02 02:22:12;;;;;;;16.02;7.53;;;-5.00;99.90;;;;;;5056238;28;20131;-82
2022/03/02 02:24:39;;;;;;;12.18;7.53;;;-5.00;99.90;;;;;;5073684;28;20048;-82
2022/03/02 02:27:06;;;;;;;12.23;6.85;;;-5.00;99.90;;;;;;5056107;28;20131;-81
2022/03/02 02:29:34;;;;;;;13.93;7.78;;;-5.10;99.90;;;;;;5056357;28;20075;-81
2022/03/02 02:32:01;;;;;;;9.10;6.53;;;-5.20;99.90;;;;;;5055931;28;20167;-82
2022/03/02 02:34:28;;;;;;;13.02;7.43;;;-5.20;99.90;;;;;;5056078;28;20454;-81
2022/03/02 02:36:57;;;;;;;16.50;6.65;;;-5.30;99.90;;;;;;5056185;28;20469;-82
2022/03/02 02:39:25;;;;;;;12.65;7.25;;;-5.30;99.90;;;;;;5056269;28;20048;-82
2022/03/02 02:41:52;;;;;;;14.25;7.65;;;-5.30;99.90;;;;;;5056507;28;20456;-81
2022/03/02 02:44:19;;;;;;;12.38;6.95;;;-5.20;99.90;;;;;;5056146;28;20127;-82
2022/03/02 02:46:46;;;;;;;14.98;7.15;;;-5.20;99.90;;;;;;5056137;28;20048;-82
2022/03/02 02:49:13;;;;;;;14.05;7.65;;;-5.20;99.90;;;;;;5056330;28;20075;-82
2022/03/02 02:51:40;;;;;;;10.93;6.82;;;-5.20;99.90;;;;;;5055777;28;20048;-82
2022/03/02 02:54:07;;;;;;;14.00;7.28;;;-5.20;99.90;;;;;;5056366;28;20056;-82
2022/03/02 02:56:34;;;;;;;10.10;7.32;;;-5.30;99.90;;;;;;5073854;28;20151;-82
2022/03/02 02:59:00;;;;;;;10.02;7.07;;;-5.30;99.90;;;;;;5074314;28;20055;-81
2022/03/02 03:01:27;;;;;;;13.75;7.40;;;-5.20;99.90;;;;;;5056503;28;20048;-82
2022/03/02 03:03:54;;;;;;;14.73;7.60;;;-5.10;99.90;;;;;;5056529;28;20051;-82
2022/03/02 03:06:21;;;;;;;9.65;6.47;;;-5.10;99.90;;;;;;5057319;28;20139;-82
2022/03/02 03:08:48;;;;;;;10.25;6.78;;;-5.10;99.90;;;;;;5056030;28;20500;-83
2022/03/02 03:11:15;;;;;;;10.77;6.75;;;-5.10;99.90;;;;;;5056038;28;20471;-83
2022/03/02 03:13:43;;;;;;;9.48;6.45;;;-5.10;99.90;;;;;;5074440;28;20110;-81
2022/03/02 03:16:10;;;;;;;11.93;7.30;;;-5.10;99.90;;;;;;5058647;28;20048;-81
2022/03/02 03:18:37;;;;;;;12.07;6.20;;;-5.10;99.90;;;;;;5060107;28;20446;-82
2022/03/02 03:21:04;;;;;;;11.02;6.93;;;-5.10;99.90;;;;;;5059676;28;20053;-83
2022/03/02 03:23:30;;;;;;;11.00;7.25;;;-5.20;99.90;;;;;;5059315;28;20048;-82
2022/03/02 03:25:57;;;;;;;10.43;7.20;;;-5.40;99.90;;;;;;5059374;28;20084;-82
2022/03/02 03:28:24;;;;;;;11.70;7.32;;;-5.40;99.90;;;;;;5059366;28;20424;-83
2022/03/02 03:30:50;;;;;;;14.77;7.28;;;-5.40;99.90;;;;;;5059150;28;20052;-82
2022/03/02 03:33:17;;;;;;;13.70;7.97;;;-5.50;99.90;;;;;;5076712;28;20045;-83
2022/03/02 03:35:44;;;;;;;11.55;7.20;;;-5.50;99.90;;;;;;5058731;28;20050;-83
2022/03/02 03:38:11;;;;;;;10.70;7.10;;;-5.50;99.90;;;;;;5059097;28;20516;-82
2022/03/02 03:40:38;;;;;;;11.02;6.72;;;-5.40;99.90;;;;;;5059021;28;20094;-82
2022/03/02 03:43:06;;;;;;;13.57;7.45;;;-5.40;99.90;;;;;;5059085;28;20135;-82
2022/03/02 03:45:33;;;;;;;15.43;7.38;;;-5.50;99.90;;;;;;5058914;28;20084;-82
2022/03/02 03:48:00;;;;;;;15.07;7.50;;;-5.60;99.90;;;;;;5058841;28;20103;-83
2022/03/02 03:50:26;;;;;;;16.90;7.80;;;-5.60;99.90;;;;;;5058919;28;20055;-82
2022/03/02 03:52:53;;;;;;;16.25;7.82;;;-5.60;99.90;;;;;;5059046;28;20048;-83
2022/03/02 03:55:20;;;;;;;10.15;7.15;;;-5.50;99.90;;;;;;5059226;28;20135;-82
2022/03/02 03:57:47;;;;;;;12.63;7.38;;;-5.50;99.90;;;;;;5059265;28;20128;-82
2022/03/02 04:00:17;;;;;;;9.95;7.40;;;-5.50;99.90;;;;;;5058864;28;20059;-80
2022/03/02 04:02:46;;;;;;;16.45;8.93;;;-5.60;99.90;;;;;;5058970;28;20426;-82
2022/03/02 04:05:13;;;;;;;14.90;8.82;;;-5.60;99.90;;;;;;5059171;28;20049;-80
2022/03/02 04:07:44;;;;;;;14.77;8.70;;;-5.70;99.90;;;;;;5059812;28;20460;-83
2022/03/02 04:10:12;;;;;;;15.32;8.50;;;-5.70;99.90;;;;;;5059164;28;20140;-82
2022/03/02 04:12:39;;;;;;;16.20;9.05;;;-5.70;99.90;;;;;;5059123;28;20048;-82
2022/03/02 04:15:07;;;;;;;14.38;7.68;;;-5.70;99.90;;;;;;5058441;28;20497;-82
2022/03/02 04:17:34;;;;;;;14.73;8.48;;;-5.60;99.90;;;;;;5059142;28;20044;-82
2022/03/02 04:20:01;;;;;;;10.88;7.50;;;-5.60;99.90;;;;;;5059929;28;20071;-82
2022/03/02 04:22:27;;;;;;;12.98;7.72;;;-5.60;99.90;;;;;;5059224;28;20044;-82
2022/03/02 04:24:54;;;;;;;16.13;9.57;;;-5.50;99.90;;;;;;5059067;28;20095;-82
2022/03/02 04:27:21;;;;;;;21.27;10.07;;;-5.50;99.90;;;;;;5057299;28;20413;-82
2022/03/02 04:29:48;;;;;;;19.65;8.50;;;-5.50;99.90;;;;;;5058392;28;20139;-82
2022/03/02 04:32:14;;;;;;;16.17;8.07;;;-5.40;99.90;;;;;;5059176;28;20075;-82
2022/03/02 04:34:41;;;;;;;21.70;8.02;;;-5.40;99.90;;;;;;5058911;28;20052;-82
2022/03/02 04:37:08;;;;;;;17.52;8.27;;;-5.30;99.90;;;;;;5058107;28;20045;-82
2022/03/02 04:39:36;;;;;;;17.13;7.60;;;-5.20;99.90;;;;;;5058333;28;20110;-82
2022/03/02 04:42:04;;;;;;;15.73;8.02;;;-5.10;99.90;;;;;;5057889;28;20053;-81
2022/03/02 04:44:31;;;;;;;19.40;8.68;;;-5.10;99.90;;;;;;5075911;28;20442;-82
2022/03/02 04:46:58;;;;;;;21.27;10.68;;;-5.10;99.90;;;;;;5075801;28;20052;-82
2022/03/02 04:49:25;;;;;;;13.15;8.85;;;-5.00;99.90;;;;;;5075778;28;20144;-82
2022/03/02 04:51:52;;;;;;;13.95;7.50;;;-5.00;99.90;;;;;;5057962;28;20072;-82
2022/03/02 04:57:05;;;;;;;10.85;7.18;;;-4.90;99.90;;;;;;5075671;28;20091;-82
2022/03/02 04:59:33;;;;;;;10.65;6.70;;;-4.80;99.90;;;;;;5057577;28;20501;-82
2022/03/02 05:02:00;;;;;;;10.35;6.50;;;-4.80;99.90;;;;;;5058172;28;20098;-83
2022/03/02 05:04:27;;;;;;;11.68;7.60;;;-4.80;99.90;;;;;;5075473;28;20055;-82
2022/03/02 05:06:54;;;;;;;10.43;7.13;;;-4.90;99.90;;;;;;5057753;28;20052;-82
2022/03/02 05:09:21;;;;;;;9.82;6.32;;;-4.90;99.90;;;;;;5057678;28;20045;-83
2022/03/02 05:11:48;;;;;;;13.60;7.20;;;-5.00;99.90;;;;;;5057770;28;20058;-82
2022/03/02 05:14:16;;;;;;;11.73;6.97;;;-4.80;99.90;;;;;;5057741;28;20520;-82
2022/03/02 05:16:43;;;;;;;12.77;7.28;;;-4.80;99.90;;;;;;5076017;28;20087;-82
2022/03/02 05:19:10;;;;;;;11.98;8.07;;;-4.90;99.90;;;;;;5058167;28;20456;-82
2022/03/02 05:21:37;;;;;;;20.35;8.60;;;-4.90;99.90;;;;;;5057296;28;20048;-83
2022/03/02 05:24:05;;;;;;;18.42;8.90;;;-4.90;99.90;;;;;;5057973;28;20052;-82
2022/03/02 05:26:31;;;;;;;14.88;8.48;;;-4.90;99.90;;;;;;5057490;28;20059;-84
2022/03/02 05:28:58;;;;;;;14.68;8.07;;;-4.80;99.90;;;;;;5057334;28;20106;-82
2022/03/02 05:31:25;;;;;;;15.40;9.23;;;-4.70;99.90;;;;;;5057624;28;20049;-82
2022/03/02 05:33:52;;;;;;;20.38;9.60;;;-4.70;99.90;;;;;;5057648;28;20067;-82
2022/03/02 05:36:24;;;;;;;16.13;9.30;;;-4.60;99.90;;;;;;5057421;28;20060;-82
2022/03/02 05:38:52;;;;;;;17.30;10.60;;;-4.50;99.90;;;;;;5057751;28;20135;-83
2022/03/02 05:41:20;;;;;;;14.68;7.80;;;-4.50;99.90;;;;;;5073815;28;20051;-83
2022/03/02 05:43:47;;;;;;;21.33;9.05;;;-4.50;99.90;;;;;;5057586;28;20072;-83
2022/03/02 05:46:15;;;;;;;13.00;8.55;;;-4.50;99.90;;;;;;5057656;28;20505;-83
2022/03/02 05:48:41;;;;;;;12.25;8.32;;;-4.50;99.90;;;;;;5059445;28;20067;-83
2022/03/02 05:51:08;;;;;;;13.45;8.13;;;-4.50;99.90;;;;;;5057839;28;20091;-83
2022/03/02 05:53:35;;;;;;;17.30;8.07;;;-4.50;99.90;;;;;;5057580;28;20080;-83
2022/03/02 05:56:03;;;;;;;15.73;8.07;;;-4.60;99.90;;;;;;5057476;28;20128;-82
2022/03/02 05:58:31;;;;;;;13.82;7.95;;;-4.60;99.90;;;;;;5057232;28;20044;-82
2022/03/02 06:00:59;;;;;;;12.77;7.47;;;-4.70;99.90;;;;;;5057460;28;20068;-82
2022/03/02 06:03:27;;;;;;;13.77;7.40;;;-4.70;99.90;;;;;;5057156;28;20056;-83
2022/03/02 06:05:54;;;;;;;25.70;8.52;;;-4.60;99.90;;;;;;5056971;28;20084;-82
2022/03/02 06:08:21;;;;;;;21.73;8.80;;;-4.60;99.90;;;;;;5057361;28;20417;-84
2022/03/02 06:10:49;;;;;;;22.08;8.95;;;-4.50;99.90;;;;;;5075968;28;20051;-84
2022/03/02 06:13:16;;;;;;;18.70;8.80;;;-4.40;99.90;;;;;;5056657;28;20087;-85
2022/03/02 06:15:44;;;;;;;14.55;8.93;;;-4.30;99.90;;;;;;5057101;28;20151;-84
2022/03/02 06:18:13;;;;;;;15.40;7.68;;;-4.20;99.90;;;;;;5056980;28;20054;-84
2022/03/02 06:20:43;;;;;;;14.93;9.43;;;-4.20;99.90;;;;;;5056525;28;20041;-84
2022/03/02 06:23:10;;;;;;;25.42;10.45;;;-4.00;99.90;;;;;;5056437;28;20047;-84
2022/03/02 06:25:38;;;;;;;19.98;10.85;;;-4.10;99.90;;;;;;5056654;28;20489;-84
2022/03/02 06:28:04;;;;;;;29.13;14.55;;;-4.10;99.90;;;;;;5056290;28;20055;-84
2022/03/02 06:30:32;;;;;;;33.03;13.65;;;-4.10;99.90;;;;;;5056409;28;20056;-84
2022/03/02 06:32:59;;;;;;;34.28;17.80;;;-3.90;99.90;;;;;;5056310;28;20041;-84
2022/03/02 06:35:26;;;;;;;21.35;10.80;;;-3.80;99.90;;;;;;5056654;28;20040;-85
2022/03/02 06:37:54;;;;;;;18.23;9.05;;;-3.60;99.90;;;;;;5056146;28;20078;-85
2022/03/02 06:40:21;;;;;;;23.02;12.80;;;-3.50;99.90;;;;;;5057178;28;20390;-85
2022/03/02 06:42:59;;;;;;;28.65;14.27;;;-3.50;99.90;;;;;;5056181;28;20058;-84
2022/03/02 06:45:52;;;;;;;49.67;24.33;;;-3.50;99.90;;;;;;5075242;28;20071;-84
2022/03/02 06:48:21;;;;;;;20.37;9.37;;;-3.30;99.90;;;;;;5073536;28;20044;-85
2022/03/02 06:50:53;;;;;;;13.10;8.60;;;-3.20;99.90;;;;;;5055104;28;20551;-85
2022/03/02 06:53:32;;;;;;;20.03;8.57;;;-3.00;99.90;;;;;;5056008;28;20615;-85
2022/03/02 06:56:02;;;;;;;15.65;7.88;;;-2.90;99.90;;;;;;5055991;28;20466;-85
2022/03/02 06:58:47;;;;;;;10.93;6.93;;;-2.70;99.90;;;;;;5055639;28;20079;-85
2022/03/02 07:01:17;;;;;;;18.75;7.80;;;-2.60;99.90;;;;;;5055622;28;20052;-85
2022/03/02 07:03:48;;;;;;;18.67;6.63;;;-2.50;99.90;;;;;;5058191;28;20112;-85
2022/03/02 07:06:15;;;;;;;21.63;8.15;;;-2.40;99.90;;;;;;5058665;28;20076;-85
2022/03/02 07:08:45;;;;;;;30.85;8.20;;;-2.30;99.90;;;;;;5056484;28;20051;-86
2022/03/02 07:11:12;;;;;;;15.02;6.90;;;-2.20;99.90;;;;;;5056181;28;20128;-85
2022/03/02 07:13:39;;;;;;;13.90;6.97;;;-2.10;99.90;;;;;;5056328;28;20510;-86
2022/03/02 07:16:06;;;;;;;10.75;6.30;;;-2.00;99.90;;;;;;5055976;28;20056;-85
2022/03/02 07:18:34;;;;;;;11.30;7.13;;;-1.90;99.90;;;;;;5056536;28;20048;-86
2022/03/02 07:21:04;;;;;;;13.05;7.32;;;-1.80;99.90;;;;;;5056229;28;20481;-86
2022/03/02 07:23:36;;;;;;;63.78;38.47;;;-1.70;99.90;;;;;;5056292;28;20076;-86
2022/03/02 07:26:05;;;;;;;50.30;29.88;;;-1.60;99.90;;;;;;5056155;28;20386;-86
2022/03/02 07:28:36;;;;;;;17.42;8.43;;;-1.40;99.90;;;;;;5056067;28;20045;-86
2022/03/02 07:31:05;;;;;;;18.27;7.78;;;-1.30;99.90;;;;;;5048387;28;20155;-86
2022/03/02 07:33:35;;;;;;;16.80;7.43;;;-1.20;99.90;;;;;;5041678;28;20068;-86
2022/03/02 07:36:03;;;;;;;29.95;15.60;;;-1.10;99.90;;;;;;5041574;28;20109;-86
2022/03/02 07:38:31;;;;;;;36.03;21.08;;;-1.00;99.90;;;;;;5036949;28;20045;-86
2022/03/02 07:40:58;;;;;;;19.98;10.32;;;-0.90;99.90;;;;;;5036536;28;20103;-86
2022/03/02 07:43:26;;;;;;;38.67;21.38;;;-0.80;99.90;;;;;;5036441;28;20091;-86
2022/03/02 07:45:53;;;;;;;30.08;19.20;;;-0.80;99.90;;;;;;5036273;28;20160;-87
2022/03/02 07:48:19;;;;;;;13.32;7.20;;;-0.70;99.90;;;;;;5036512;28;20486;-87
2022/03/02 07:50:47;;;;;;;8.05;6.00;;;-0.70;99.90;;;;;;5036294;28;20045;-87
2022/03/02 07:53:17;;;;;;;12.95;5.78;;;-0.60;99.90;;;;;;5036883;28;20045;-87
2022/03/02 07:55:44;;;;;;;14.77;6.43;;;-0.50;99.90;;;;;;5036564;28;20072;-85
2022/03/02 07:58:13;;;;;;;18.65;6.82;;;-0.40;99.90;;;;;;5036457;28;20076;-87
2022/03/02 08:00:40;;;;;;;11.55;6.57;;;-0.30;99.90;;;;;;5036162;28;20099;-86
2022/03/02 08:03:09;;;;;;;14.65;6.68;;;-0.20;99.90;;;;;;5040787;28;20045;-87
2022/03/02 08:05:38;;;;;;;11.40;5.95;;;0.00;99.90;;;;;;5041087;28;20547;-87
2022/03/02 08:08:11;;;;;;;13.70;6.15;;;0.10;99.90;;;;;;5040838;28;20080;-87
2022/03/02 08:10:38;;;;;;;10.65;5.90;;;0.20;99.90;;;;;;5039805;28;20049;-87
2022/03/02 08:13:04;;;;;;;12.15;6.47;;;0.20;99.90;;;;;;5039364;28;20080;-86
2022/03/02 08:15:32;;;;;;;11.18;5.95;;;0.30;99.90;;;;;;5039289;28;20053;-87
2022/03/02 08:17:59;;;;;;;12.68;6.35;;;0.50;99.90;;;;;;5040352;28;20045;-86
2022/03/02 08:20:50;;;;;;;14.48;7.60;;;0.70;99.90;;;;;;5046455;28;20049;-86
2022/03/02 08:23:19;;;;;;;18.85;7.47;;;0.70;99.90;;;;;;5042044;28;20091;-86
2022/03/02 08:25:53;;;;;;;15.00;6.47;;;0.90;99.90;;;;;;5060117;28;20048;-87
2022/03/02 08:28:21;;;;;;;13.70;6.53;;;1.20;99.90;;;;;;5042667;28;20136;-88
2022/03/02 08:30:52;;;;;;;12.80;5.72;;;1.40;99.90;;;;;;5061129;28;20044;-88
2022/03/02 08:33:25;;;;;;;10.13;6.18;;;1.50;99.90;;;;;;5060616;28;20551;-87
2022/03/02 08:35:53;;;;;;;10.80;6.22;;;1.60;99.90;;;;;;5060943;28;20118;-88
2022/03/02 08:38:20;;;;;;;9.63;6.00;;;1.80;99.90;;;;;;5077982;28;20075;-88
2022/03/02 08:40:47;;;;;;;24.27;10.68;;;2.00;99.90;;;;;;5059816;28;20064;-88
2022/03/02 08:43:17;;;;;;;41.92;16.08;;;1.60;99.90;;;;;;5059448;28;20068;-86
2022/03/02 08:45:46;;;;;;;23.02;11.00;;;1.70;99.90;;;;;;5060477;28;20063;-86
2022/03/02 08:48:19;;;;;;;22.67;10.25;;;1.70;99.90;;;;;;5079939;28;20049;-87
2022/03/02 08:50:46;;;;;;;18.65;8.20;;;2.00;99.90;;;;;;5062989;28;20485;-87
2022/03/02 08:53:31;;;;;;;24.00;8.10;;;2.50;99.90;;;;;;5063056;28;20044;-87
2022/03/02 08:56:01;;;;;;;26.70;10.43;;;2.70;99.90;;;;;;5059234;28;20091;-86
2022/03/02 08:58:29;;;;;;;24.00;8.15;;;2.70;99.90;;;;;;5076477;28;20048;-86
2022/03/02 09:00:59;;;;;;;15.27;7.43;;;3.10;99.90;;;;;;5076425;28;20076;-86
2022/03/02 09:03:45;;;;;;;17.85;6.85;;;3.70;99.90;;;;;;5058953;28;20094;-85
2022/03/02 09:06:12;;;;;;;13.82;5.93;;;5.20;99.90;;;;;;5059600;28;20095;-85
2022/03/02 09:08:39;;;;;;;13.85;5.90;;;6.30;94.90;;;;;;5059264;28;20044;-85
2022/03/02 09:11:08;;;;;;;16.88;7.05;;;6.90;90.10;;;;;;5056323;28;20178;-85
2022/03/02 09:13:38;;;;;;;18.85;7.28;;;6.90;83.80;;;;;;5047861;28;20044;-84
2022/03/02 09:16:07;;;;;;;24.75;7.82;;;6.80;82.10;;;;;;5039272;28;20091;-84
2022/03/02 09:18:34;;;;;;;25.23;8.18;;;6.40;84.20;;;;;;5039482;28;20418;-84
2022/03/02 09:21:04;;;;;;;18.83;7.28;;;6.20;86.20;;;;;;5057226;28;20067;-84
2022/03/02 09:23:40;;;;;;;17.10;6.70;;;5.80;87.30;;;;;;5038849;28;20057;-84
2022/03/02 09:26:13;;;;;;;20.98;6.55;;;5.70;89.70;;;;;;5038742;28;20080;-83
2022/03/02 09:28:43;;;;;;;17.63;6.40;;;5.70;87.30;;;;;;5039379;28;20509;-83
2022/03/02 09:31:14;;;;;;;22.70;7.32;;;5.60;87.70;;;;;;5038931;28;20053;-84
2022/03/02 09:33:45;;;;;;;20.67;6.30;;;5.50;90.00;;;;;;5042283;28;20053;-83
2022/03/02 09:36:24;;;;;;;18.20;7.05;;;5.70;90.30;;;;;;5039569;28;20091;-84
2022/03/02 09:38:52;;;;;;;17.88;7.38;;;5.80;90.90;;;;;;5039809;28;20045;-82
2022/03/02 09:41:38;;;;;;;23.75;7.47;;;6.20;89.50;;;;;;5039192;28;20085;-83
2022/03/02 09:44:06;;;;;;;28.05;11.13;;;6.60;87.20;;;;;;5039344;28;20111;-83
2022/03/02 09:46:37;;;;;;;44.97;14.43;;;6.80;82.90;;;;;;5038901;28;20486;-83
2022/03/02 09:49:10;;;;;;;41.72;13.43;;;7.00;80.60;;;;;;5038776;28;20056;-83
2022/03/02 09:51:40;;;;;;;51.87;11.27;;;7.10;78.70;;;;;;5066382;28;20051;-83
2022/03/02 09:54:08;;;;;;;41.45;10.48;;;7.00;78.50;;;;;;5046508;28;20040;-86
2022/03/02 09:56:36;;;;;;;30.48;9.68;;;6.40;80.40;;;;;;5043603;28;20140;-86
2022/03/02 09:59:08;;;;;;;35.92;10.65;;;6.20;84.60;;;;;;5039504;28;20045;-86
2022/03/02 10:01:38;;;;;;;49.20;11.50;;;6.70;85.90;;;;;;5039406;28;20053;-87
2022/03/02 10:04:23;;;;;;;61.60;11.38;;;7.00;80.10;;;;;;5039060;28;20045;-86
2022/03/02 10:07:45;;;;;;;25.42;9.85;;;8.00;76.70;;;;;;5038559;28;20132;-86
2022/03/02 10:10:22;;;;;;;40.38;9.52;;;7.90;74.60;;;;;;5042666;28;20044;-86
2022/03/02 10:13:19;;;;;;;36.00;9.13;;;8.20;73.70;;;;;;5037958;28;20520;-86
2022/03/02 10:16:12;;;;;;;26.73;8.60;;;8.20;71.60;;;;;;5039117;28;20056;-86
2022/03/02 10:19:02;;;;;;;25.73;8.30;;;8.40;70.80;;;;;;5035366;28;20060;-86
2022/03/02 10:21:31;;;;;;;24.23;9.43;;;8.30;69.90;;;;;;5056218;28;20052;-86
2022/03/02 10:24:03;;;;;;;33.13;10.82;;;7.90;71.10;;;;;;5045761;28;20144;-86
2022/03/02 10:26:34;;;;;;;27.80;8.48;;;8.40;69.70;;;;;;5056998;28;20055;-86
2022/03/02 10:29:06;;;;;;;25.15;8.38;;;8.80;65.50;;;;;;5058663;28;20100;-86
2022/03/02 10:32:05;;;;;;;34.03;8.23;;;8.90;63.30;;;;;;5058752;28;20424;-86
2022/03/02 10:35:00;;;;;;;17.85;6.80;;;8.80;62.80;;;;;;5059068;28;20073;-87
2022/03/02 10:37:30;;;;;;;25.58;7.82;;;9.20;61.70;;;;;;5056266;28;20448;-87
2022/03/02 10:40:17;;;;;;;20.00;6.90;;;9.90;57.90;;;;;;5059330;28;20068;-85
2022/03/02 10:42:55;;;;;;;31.27;7.63;;;10.70;57.20;;;;;;5078477;28;20044;-85
2022/03/02 10:45:36;;;;;;;22.20;7.20;;;11.30;54.80;;;;;;5062084;28;20131;-85
2022/03/02 10:48:12;;;;;;;14.95;6.63;;;11.70;55.30;;;;;;5065272;28;20045;-85
2022/03/02 10:50:42;;;;;;;12.95;6.22;;;11.70;56.30;;;;;;5059352;28;20508;-84
2022/03/02 10:53:15;;;;;;;19.50;6.00;;;11.60;53.30;;;;;;5058017;28;20127;-84
2022/03/02 10:55:44;;;;;;;12.63;6.53;;;11.50;54.50;;;;;;5057850;28;20502;-84
2022/03/02 10:58:14;;;;;;;8.75;5.50;;;11.50;53.80;;;;;;5057748;28;20055;-83
2022/03/02 11:00:42;;;;;;;9.40;5.97;;;11.80;50.00;;;;;;5057528;28;20485;-84
2022/03/02 11:03:09;;;;;;;10.45;6.20;;;12.20;48.20;;;;;;5056736;28;20135;-85
2022/03/02 11:05:36;;;;;;;17.05;5.88;;;13.20;47.60;;;;;;5057766;28;20052;-84
2022/03/02 11:08:03;;;;;;;8.85;5.63;;;14.00;45.30;;;;;;5057783;28;20048;-84
2022/03/02 11:10:33;;;;;;;12.63;6.00;;;14.10;44.40;;;;;;5057528;28;20501;-84
2022/03/02 11:13:03;;;;;;;12.65;6.70;;;14.00;46.00;;;;;;5057786;28;20071;-83
2022/03/02 11:15:55;;;;;;;11.35;5.80;;;13.70;47.20;;;;;;5057460;28;20052;-84
2022/03/02 11:18:38;;;;;;;9.38;5.97;;;13.50;48.40;;;;;;5065816;28;20072;-84
2022/03/02 11:21:11;;;;;;;8.88;5.40;;;13.30;47.30;;;;;;5057932;28;20567;-84
2022/03/02 11:23:51;;;;;;;11.27;5.40;;;12.90;47.20;;;;;;5057669;28;20127;-83
2022/03/02 11:26:28;;;;;;;9.82;5.75;;;13.60;45.90;;;;;;5075731;28;20048;-84
2022/03/02 11:29:01;;;;;;;60.45;8.85;;;14.20;44.20;;;;;;5057854;28;20102;-83
2022/03/02 11:31:31;;;;;;;18.90;6.00;;;14.70;44.10;;;;;;5057795;28;20049;-84
2022/03/02 11:34:41;;;;;;;18.15;7.85;;;14.90;42.70;;;;;;5057384;28;20052;-84
2022/03/02 11:37:08;;;;;;;9.20;5.68;;;15.50;41.10;;;;;;4996020;28;20511;-84
2022/03/02 11:39:43;;;;;;;19.83;6.70;;;15.60;40.40;;;;;;5049857;28;20122;-84
2022/03/02 11:42:10;;;;;;;11.73;5.60;;;14.70;41.20;;;;;;5062126;28;20052;-85
2022/03/02 11:44:42;;;;;;;9.07;5.93;;;14.60;41.90;;;;;;5062165;28;20086;-79
2022/03/02 11:47:13;;;;;;;13.98;5.95;;;13.80;42.80;;;;;;5060602;28;20052;-80
2022/03/02 11:49:47;;;;;;;16.52;5.75;;;13.30;43.80;;;;;;5059911;28;20508;-79
2022/03/02 11:52:21;;;;;;;14.90;6.63;;;14.90;43.20;;;;;;5060427;28;20131;-80
2022/03/02 11:54:51;;;;;;;10.63;6.50;;;16.40;40.80;;;;;;5060485;28;20050;-80
2022/03/02 11:57:21;;;;;;;6.20;4.95;;;17.60;39.30;;;;;;5060635;28;20124;-79
2022/03/02 11:59:48;;;;;;;14.23;5.20;;;19.50;36.70;;;;;;5060774;28;20084;-80
2022/03/02 12:02:21;;;;;;;9.25;6.20;;;19.00;34.30;;;;;;5061946;28;20413;-81
2022/03/02 12:05:06;;;;;;;7.63;5.38;;;18.60;34.50;;;;;;5061044;28;20123;-80
2022/03/02 12:07:41;;;;;;;6.35;4.82;;;20.80;32.40;;;;;;5060367;28;20102;-79
2022/03/02 12:10:24;;;;;;;5.85;4.90;;;20.30;31.70;;;;;;5059886;28;20052;-79
2022/03/02 12:12:53;;;;;;;6.17;4.57;;;20.20;31.10;;;;;;5077707;28;20452;-79
2022/03/02 12:15:47;;;;;;;6.60;4.93;;;19.40;32.70;;;;;;5055700;28;20417;-79
2022/03/02 12:18:17;;;;;;;7.82;5.40;;;20.80;32.20;;;;;;5050069;28;20453;-81
2022/03/02 12:20:49;;;;;;;7.25;5.15;;;20.30;32.10;;;;;;5065268;28;20132;-79
2022/03/02 12:23:30;;;;;;;8.93;5.13;;;20.20;30.90;;;;;;5050033;28;20504;-82
2022/03/02 12:26:00;;;;;;;20.58;6.13;;;18.20;32.90;;;;;;5053673;28;20037;-82
2022/03/02 12:28:27;;;;;;;19.15;6.50;;;18.90;32.20;;;;;;5054127;28;20048;-83
2022/03/02 12:30:55;;;;;;;5.97;4.90;;;19.50;32.50;;;;;;5053980;28;20068;-83
2022/03/02 12:33:23;;;;;;;6.72;4.93;;;18.80;31.30;;;;;;5046329;28;20059;-83
2022/03/02 12:35:51;;;;;;;10.63;5.82;;;18.50;33.80;;;;;;5062058;28;20049;-79
2022/03/02 12:38:18;;;;;;;11.07;6.30;;;16.40;37.40;;;;;;5042513;28;20132;-84
2022/03/02 12:40:46;;;;;;;13.85;7.10;;;15.10;40.80;;;;;;5052349;23;20044;-86
2022/03/02 12:43:16;;;;;;;10.65;6.80;;;14.10;42.50;;;;;;5074954;28;20052;-87
2022/03/02 12:45:50;;;;;;;42.60;27.73;;;15.10;43.00;;;;;;5057809;28;20049;-87
2022/03/02 12:48:19;;;;;;;31.55;24.13;;;15.70;42.40;;;;;;5055223;28;20091;-87
2022/03/02 12:50:47;;;;;;;18.90;9.43;;;15.90;41.00;;;;;;5056973;28;20066;-87
2022/03/02 12:53:15;;;;;;;8.10;6.40;;;15.80;40.00;;;;;;5073270;28;20066;-87
2022/03/02 12:55:48;;;;;;;7.28;5.93;;;15.80;40.90;;;;;;5074443;28;20086;-86